Airport Name : Camilo Daza

Other Name : Cucuta

ICAO : SKCC

IATA : CUC

FAA :

Latitude : 7.927567

Longitude : -72.511547

Country : Colombia

Local Date and Time : 1/22/2018 10:52:00 AM

 

TAF (Terminal Aerodrome Forecast)

TAF SKCC 221100Z 2212/2312 VRB02KT 9999 SCT020 BECMG 2216/2218 18012KT TX31/2218Z TN20/2311Z

 

METAR (METeorological Aerodrome Report)

SKCC 221500Z 02005KT 9999 FEW023 29/18 A2989

SKCC 221400Z 33004KT 9999 FEW023 26/17 A2992

SKCC 221300Z VRB02KT 9999 FEW022 21/16 A2991

SKCC 221200Z VRB02KT 9999 FEW022 21/17 A2988